Wetterdaten: Donnerstag, 17.02.2011
Datum Zeit Temp. A. Feuchte A. Luftdruck Regen Wind Richtung Richtung Sonnenschein UV Solar Windben
17.02.2011 00:00 1,2 C 88 % 1000,9 hPa 0,0 mm 0,0 km/h (0 Bft) N 0 0 min 0 UV-I 0 W/m 0,0 km/h (0 Bft)
17.02.2011 00:10 1,2 C 88 % 1000,8 hPa 0,0 mm 0,0 km/h (0 Bft) N 0 0 min 0 UV-I 0 W/m 0,0 km/h (0 Bft)
17.02.2011 00:20 1,2 C 89 % 1000,8 hPa 0,0 mm 0,0 km/h (0 Bft) O-SO 112 0 min 0 UV-I 0 W/m 1,6 km/h (1 Bft)
17.02.2011 00:30 1,2 C 89 % 1000,9 hPa 0,0 mm 0,0 km/h (0 Bft) N 0 0 min 0 UV-I 0 W/m 0,0 km/h (0 Bft)
17.02.2011 00:40 1,2 C 89 % 1000,9 hPa 0,0 mm 0,0 km/h (0 Bft) O-SO 112 0 min 0 UV-I 0 W/m 1,6 km/h (1 Bft)
17.02.2011 00:50 1,3 C 89 % 1000,9 hPa 0,0 mm 0,0 km/h (0 Bft) O-SO 112 0 min 0 UV-I 0 W/m 4,8 km/h (1 Bft)
17.02.2011 01:00 1,3 C 89 % 1000,9 hPa 0,0 mm 0,0 km/h (0 Bft) N 0 0 min 0 UV-I 0 W/m 0,0 km/h (0 Bft)
17.02.2011 01:10 1,3 C 89 % 1000,6 hPa 0,0 mm 0,0 km/h (0 Bft) N 0 0 min 0 UV-I 0 W/m 0,0 km/h (0 Bft)
17.02.2011 01:20 1,2 C 89 % 1000,6 hPa 0,0 mm 0,0 km/h (0 Bft) O-SO 112 0 min 0 UV-I 0 W/m 3,2 km/h (1 Bft)
17.02.2011 01:30 1,2 C 90 % 1000,7 hPa 0,0 mm 0,0 km/h (0 Bft) N 0 0 min 0 UV-I 0 W/m 0,0 km/h (0 Bft)
17.02.2011 01:40 1,2 C 90 % 1000,8 hPa 0,0 mm 0,0 km/h (0 Bft) O-SO 112 0 min 0 UV-I 0 W/m 1,6 km/h (1 Bft)
17.02.2011 01:50 1,2 C 90 % 1000,8 hPa 0,0 mm 0,0 km/h (0 Bft) N 0 0 min 0 UV-I 0 W/m 0,0 km/h (0 Bft)
17.02.2011 02:00 1,1 C 90 % 1000,7 hPa 0,0 mm 0,0 km/h (0 Bft) N 0 0 min 0 UV-I 0 W/m 0,0 km/h (0 Bft)
17.02.2011 02:10 1,1 C 90 % 1000,8 hPa 0,0 mm 0,0 km/h (0 Bft) N 0 0 min 0 UV-I 0 W/m 0,0 km/h (0 Bft)
17.02.2011 02:20 0,9 C 90 % 1000,8 hPa 0,0 mm 0,0 km/h (0 Bft) N 0 0 min 0 UV-I 0 W/m 0,0 km/h (0 Bft)
17.02.2011 02:30 0,8 C 90 % 1000,9 hPa 0,0 mm 0,0 km/h (0 Bft) N 0 0 min 0 UV-I 0 W/m 0,0 km/h (0 Bft)
17.02.2011 02:40 0,7 C 90 % 1000,8 hPa 0,0 mm 0,0 km/h (0 Bft) N 0 0 min 0 UV-I 0 W/m 0,0 km/h (0 Bft)
17.02.2011 02:50 0,6 C 90 % 1000,8 hPa 0,0 mm 0,0 km/h (0 Bft) N 0 0 min 0 UV-I 0 W/m 0,0 km/h (0 Bft)
17.02.2011 03:00 0,5 C 90 % 1000,9 hPa 0,0 mm 0,0 km/h (0 Bft) N 0 0 min 0 UV-I 0 W/m 0,0 km/h (0 Bft)
17.02.2011 03:10 0,4 C 90 % 1000,9 hPa 0,0 mm 0,0 km/h (0 Bft) N 0 0 min 0 UV-I 0 W/m 0,0 km/h (0 Bft)
17.02.2011 03:20 0,3 C 90 % 1000,9 hPa 0,0 mm 0,0 km/h (0 Bft) N 0 0 min 0 UV-I 0 W/m 0,0 km/h (0 Bft)
17.02.2011 03:30 0,2 C 90 % 1000,9 hPa 0,0 mm 0,0 km/h (0 Bft) N 0 0 min 0 UV-I 0 W/m 0,0 km/h (0 Bft)
17.02.2011 03:40 0,1 C 90 % 1000,9 hPa 0,0 mm 0,0 km/h (0 Bft) N 0 0 min 0 UV-I 0 W/m 0,0 km/h (0 Bft)
17.02.2011 03:50 -0,1 C 90 % 1000,8 hPa 0,0 mm 0,0 km/h (0 Bft) N 0 0 min 0 UV-I 0 W/m 0,0 km/h (0 Bft)
17.02.2011 04:00 -0,1 C 90 % 1000,8 hPa 0,0 mm 0,0 km/h (0 Bft) N 0 0 min 0 UV-I 0 W/m 0,0 km/h (0 Bft)
17.02.2011 04:10 -0,2 C 90 % 1000,9 hPa 0,0 mm 0,0 km/h (0 Bft) N 0 0 min 0 UV-I 0 W/m 0,0 km/h (0 Bft)
17.02.2011 04:20 -0,3 C 90 % 1001,0 hPa 0,0 mm 0,0 km/h (0 Bft) N 0 0 min 0 UV-I 0 W/m 0,0 km/h (0 Bft)
17.02.2011 04:30 -0,4 C 90 % 1001,0 hPa 0,0 mm 0,0 km/h (0 Bft) N 0 0 min 0 UV-I 0 W/m 0,0 km/h (0 Bft)
17.02.2011 04:40 -0,5 C 90 % 1000,9 hPa 0,0 mm 0,0 km/h (0 Bft) N 0 0 min 0 UV-I 0 W/m 0,0 km/h (0 Bft)
17.02.2011 04:50 -0,6 C 90 % 1001,0 hPa 0,0 mm 0,0 km/h (0 Bft) N 0 0 min 0 UV-I 0 W/m 0,0 km/h (0 Bft)
17.02.2011 05:00 -0,6 C 90 % 1001,2 hPa 0,0 mm 0,0 km/h (0 Bft) O-SO 112 0 min 0 UV-I 0 W/m 1,6 km/h (1 Bft)
17.02.2011 05:10 -0,7 C 90 % 1001,2 hPa 0,0 mm 0,0 km/h (0 Bft) N 0 0 min 0 UV-I 0 W/m 0,0 km/h (0 Bft)
17.02.2011 05:20 -0,7 C 90 % 1001,3 hPa 0,0 mm 0,0 km/h (0 Bft) O-SO 112 0 min 0 UV-I 0 W/m 1,6 km/h (1 Bft)
17.02.2011 05:30 -0,8 C 90 % 1001,3 hPa 0,0 mm 0,0 km/h (0 Bft) O-SO 112 0 min 0 UV-I 0 W/m 1,6 km/h (1 Bft)
17.02.2011 05:40 -0,9 C 90 % 1001,4 hPa 0,0 mm 0,0 km/h (0 Bft) N 0 0 min 0 UV-I 0 W/m 0,0 km/h (0 Bft)
17.02.2011 05:50 -0,9 C 90 % 1001,5 hPa 0,0 mm 0,0 km/h (0 Bft) O-SO 112 0 min 0 UV-I 0 W/m 6,4 km/h (2 Bft)
17.02.2011 06:00 -0,8 C 90 % 1001,6 hPa 0,0 mm 0,0 km/h (0 Bft) O 90 0 min 0 UV-I 0 W/m 6,4 km/h (2 Bft)
17.02.2011 06:10 -0,8 C 91 % 1001,6 hPa 0,0 mm 0,0 km/h (0 Bft) O 90 0 min 0 UV-I 0 W/m 1,6 km/h (1 Bft)
17.02.2011 06:20 -0,7 C 91 % 1001,8 hPa 0,0 mm 0,0 km/h (0 Bft) O 90 0 min 0 UV-I 0 W/m 1,6 km/h (1 Bft)
17.02.2011 06:30 -0,7 C 91 % 1002,0 hPa 0,0 mm 0,0 km/h (0 Bft) O 90 0 min 0 UV-I 0 W/m 3,2 km/h (1 Bft)
17.02.2011 06:40 -0,6 C 91 % 1002,2 hPa 0,0 mm 0,0 km/h (0 Bft) O-NO 67 0 min 0 UV-I 0 W/m 3,2 km/h (1 Bft)
17.02.2011 06:50 -0,5 C 91 % 1002,4 hPa 0,0 mm 0,0 km/h (0 Bft) O-NO 67 0 min 0 UV-I 0 W/m 4,8 km/h (1 Bft)
17.02.2011 07:00 -0,4 C 91 % 1002,4 hPa 0,0 mm 0,0 km/h (0 Bft) O-NO 67 0 min 0 UV-I 0 W/m 3,2 km/h (1 Bft)
17.02.2011 07:10 -0,4 C 91 % 1002,6 hPa 0,0 mm 0,0 km/h (0 Bft) O-NO 67 0 min 0 UV-I 0 W/m 3,2 km/h (1 Bft)
17.02.2011 07:20 -0,3 C 91 % 1002,7 hPa 0,0 mm 0,0 km/h (0 Bft) O-NO 67 0 min 0 UV-I 0 W/m 1,6 km/h (1 Bft)
17.02.2011 07:30 -0,3 C 91 % 1003,0 hPa 0,0 mm 1,6 km/h (1 Bft) O-NO 67 0 min 0 UV-I 0 W/m 4,8 km/h (1 Bft)
17.02.2011 07:40 -0,3 C 91 % 1002,9 hPa 0,0 mm 1,6 km/h (1 Bft) O-NO 67 0 min 0 UV-I 0 W/m 4,8 km/h (1 Bft)
17.02.2011 07:50 -0,3 C 91 % 1002,9 hPa 0,0 mm 0,0 km/h (0 Bft) O 90 0 min 0 UV-I 0 W/m 3,2 km/h (1 Bft)
17.02.2011 08:00 -0,2 C 91 % 1003,1 hPa 0,0 mm 0,0 km/h (0 Bft) O 90 0 min 0 UV-I 0 W/m 3,2 km/h (1 Bft)
17.02.2011 08:10 -0,1 C 92 % 1003,2 hPa 0,0 mm 0,0 km/h (0 Bft) O-NO 67 0 min 0 UV-I 9 W/m 4,8 km/h (1 Bft)
17.02.2011 08:20 0,1 C 92 % 1003,4 hPa 0,0 mm 1,6 km/h (1 Bft) O-NO 67 0 min 0 UV-I 14 W/m 8,0 km/h (2 Bft)
17.02.2011 08:30 0,2 C 92 % 1003,5 hPa 0,0 mm 1,6 km/h (1 Bft) O 90 0 min 0 UV-I 18 W/m 8,0 km/h (2 Bft)
17.02.2011 08:40 0,4 C 92 % 1003,6 hPa 0,0 mm 0,0 km/h (0 Bft) NO 53 0 min 0 UV-I 16 W/m 0,0 km/h (0 Bft)
17.02.2011 08:50 0,6 C 92 % 1003,6 hPa 0,0 mm 0,5 km/h (0 Bft) O-NO 57 0 min 0 UV-I 24 W/m 3,2 km/h (1 Bft)
17.02.2011 09:00 0,7 C 92 % 1003,7 hPa 0,0 mm 0,9 km/h (0 Bft) O-NO 58 0 min 0 UV-I 30 W/m 3,2 km/h (1 Bft)
17.02.2011 09:10 0,7 C 92 % 1003,7 hPa 0,0 mm 3,2 km/h (1 Bft) O-SO 112 0 min 0 UV-I 90 W/m 8,0 km/h (2 Bft)
17.02.2011 09:20 0,9 C 92 % 1003,8 hPa 0,0 mm 4,8 km/h (1 Bft) O 90 0 min 0 UV-I 121 W/m 9,7 km/h (2 Bft)
17.02.2011 09:30 1,1 C 92 % 1003,9 hPa 0,0 mm 4,8 km/h (1 Bft) O-SO 112 0 min 0 UV-I 120 W/m 14,5 km/h (3 Bft)
17.02.2011 09:40 1,1 C 92 % 1004,1 hPa 0,0 mm 4,8 km/h (1 Bft) O 90 0 min 0 UV-I 137 W/m 14,5 km/h (3 Bft)
17.02.2011 09:50 1,2 C 92 % 1004,2 hPa 0,0 mm 4,8 km/h (1 Bft) O-SO 112 0 min 0 UV-I 127 W/m 16,1 km/h (3 Bft)
17.02.2011 10:00 1,2 C 92 % 1004,4 hPa 0,0 mm 3,2 km/h (1 Bft) O-NO 67 0 min 0 UV-I 83 W/m 14,5 km/h (3 Bft)
17.02.2011 10:10 1,2 C 92 % 1004,4 hPa 0,0 mm 4,8 km/h (1 Bft) O-NO 67 0 min 0 UV-I 70 W/m 9,7 km/h (2 Bft)
17.02.2011 10:20 1,1 C 92 % 1004,7 hPa 0,0 mm 4,8 km/h (1 Bft) O 90 0 min 0 UV-I 88 W/m 9,7 km/h (2 Bft)
17.02.2011 10:30 1,1 C 92 % 1004,7 hPa 0,0 mm 4,8 km/h (1 Bft) O 90 0 min 1 UV-I 120 W/m 9,7 km/h (2 Bft)
17.02.2011 10:40 1,2 C 92 % 1004,9 hPa 0,0 mm 3,2 km/h (1 Bft) O-NO 67 0 min 1 UV-I 118 W/m 11,3 km/h (2 Bft)
17.02.2011 10:50 1,2 C 92 % 1004,9 hPa 0,0 mm 4,8 km/h (1 Bft) O 90 0 min 1 UV-I 116 W/m 14,5 km/h (3 Bft)
17.02.2011 11:00 1,3 C 92 % 1005,1 hPa 0,0 mm 3,2 km/h (1 Bft) O-NO 67 0 min 1 UV-I 141 W/m 9,7 km/h (2 Bft)
17.02.2011 11:10 1,3 C 92 % 1005,1 hPa 0,0 mm 4,8 km/h (1 Bft) O 90 0 min 1 UV-I 121 W/m 9,7 km/h (2 Bft)
17.02.2011 11:20 1,4 C 92 % 1005,2 hPa 0,0 mm 3,2 km/h (1 Bft) O 90 0 min 1 UV-I 93 W/m 12,9 km/h (3 Bft)
17.02.2011 11:30 1,4 C 92 % 1005,2 hPa 0,0 mm 4,8 km/h (1 Bft) O 90 0 min 1 UV-I 156 W/m 9,7 km/h (2 Bft)
17.02.2011 11:40 1,4 C 92 % 1005,2 hPa 0,0 mm 3,2 km/h (1 Bft) O 90 0 min 1 UV-I 153 W/m 11,3 km/h (2 Bft)
17.02.2011 11:50 1,4 C 91 % 1005,2 hPa 0,0 mm 4,8 km/h (1 Bft) O 90 0 min 1 UV-I 121 W/m 14,5 km/h (3 Bft)
17.02.2011 12:00 1,4 C 91 % 1005,2 hPa 0,0 mm 4,8 km/h (1 Bft) O 90 0 min 1 UV-I 141 W/m 14,5 km/h (3 Bft)
17.02.2011 12:10 1,4 C 91 % 1005,2 hPa 0,0 mm 4,8 km/h (1 Bft) O-NO 67 0 min 1 UV-I 146 W/m 14,5 km/h (3 Bft)
17.02.2011 12:20 1,6 C 90 % 1005,2 hPa 0,0 mm 6,4 km/h (2 Bft) O 90 0 min 1 UV-I 188 W/m 16,1 km/h (3 Bft)
17.02.2011 12:30 1,6 C 90 % 1005,2 hPa 0,0 mm 6,4 km/h (2 Bft) O 90 0 min 1 UV-I 156 W/m 14,5 km/h (3 Bft)
17.02.2011 12:40 1,6 C 89 % 1005,1 hPa 0,0 mm 4,8 km/h (1 Bft) O 90 0 min 1 UV-I 137 W/m 17,7 km/h (3 Bft)
17.02.2011 12:50 1,6 C 88 % 1005,2 hPa 0,0 mm 6,4 km/h (2 Bft) O 90 0 min 1 UV-I 148 W/m 14,5 km/h (3 Bft)
17.02.2011 13:00 1,7 C 88 % 1005,4 hPa 0,0 mm 4,8 km/h (1 Bft) O 90 0 min 1 UV-I 142 W/m 11,3 km/h (2 Bft)
17.02.2011 13:10 1,7 C 87 % 1005,6 hPa 0,0 mm 6,4 km/h (2 Bft) O 90 0 min 1 UV-I 139 W/m 17,7 km/h (3 Bft)
17.02.2011 13:20 1,7 C 86 % 1005,6 hPa 0,0 mm 6,4 km/h (2 Bft) O 90 0 min 1 UV-I 142 W/m 16,1 km/h (3 Bft)
17.02.2011 13:30 1,7 C 85 % 1005,7 hPa 0,0 mm 4,8 km/h (1 Bft) O 90 0 min 1 UV-I 130 W/m 14,5 km/h (3 Bft)
17.02.2011 13:40 1,8 C 85 % 1005,8 hPa 0,0 mm 3,2 km/h (1 Bft) O 90 0 min 0 UV-I 81 W/m 8,0 km/h (2 Bft)
17.02.2011 13:50 1,8 C 84 % 1005,7 hPa 0,0 mm 4,8 km/h (1 Bft) O 90 0 min 0 UV-I 83 W/m 9,7 km/h (2 Bft)
17.02.2011 14:00 1,8 C 84 % 1005,8 hPa 0,0 mm 3,2 km/h (1 Bft) O 90 0 min 0 UV-I 81 W/m 11,3 km/h (2 Bft)
17.02.2011 14:10 1,8 C 83 % 1005,9 hPa 0,0 mm 6,4 km/h (2 Bft) O 90 0 min 0 UV-I 79 W/m 12,9 km/h (3 Bft)
17.02.2011 14:20 1,8 C 83 % 1006,0 hPa 0,0 mm 4,8 km/h (1 Bft) O 90 0 min 0 UV-I 69 W/m 14,5 km/h (3 Bft)
17.02.2011 14:30 1,8 C 82 % 1006,2 hPa 0,0 mm 4,8 km/h (1 Bft) O 90 0 min 0 UV-I 63 W/m 11,3 km/h (2 Bft)
17.02.2011 14:40 1,8 C 82 % 1006,2 hPa 0,0 mm 4,8 km/h (1 Bft) O 90 0 min 0 UV-I 63 W/m 9,7 km/h (2 Bft)
17.02.2011 14:50 1,8 C 82 % 1006,2 hPa 0,0 mm 3,2 km/h (1 Bft) O-NO 67 0 min 0 UV-I 67 W/m 9,7 km/h (2 Bft)
17.02.2011 15:00 1,8 C 82 % 1006,2 hPa 0,0 mm 4,8 km/h (1 Bft) O 90 0 min 0 UV-I 62 W/m 9,7 km/h (2 Bft)
17.02.2011 15:10 1,9 C 82 % 1006,2 hPa 0,0 mm 3,2 km/h (1 Bft) O 90 0 min 0 UV-I 53 W/m 11,3 km/h (2 Bft)
17.02.2011 15:20 1,9 C 82 % 1006,2 hPa 0,0 mm 4,8 km/h (1 Bft) O 90 0 min 0 UV-I 47 W/m 9,7 km/h (2 Bft)
17.02.2011 15:30 1,9 C 82 % 1006,2 hPa 0,0 mm 1,6 km/h (1 Bft) O 90 0 min 0 UV-I 39 W/m 8,0 km/h (2 Bft)
17.02.2011 15:40 1,9 C 82 % 1006,2 hPa 0,0 mm 3,2 km/h (1 Bft) O 90 0 min 0 UV-I 40 W/m 8,0 km/h (2 Bft)
17.02.2011 15:50 1,9 C 82 % 1006,2 hPa 0,0 mm 4,8 km/h (1 Bft) O 90 0 min 0 UV-I 44 W/m 11,3 km/h (2 Bft)
17.02.2011 16:00 1,9 C 82 % 1006,2 hPa 0,0 mm 4,8 km/h (1 Bft) O-SO 112 0 min 0 UV-I 32 W/m 9,7 km/h (2 Bft)
17.02.2011 16:10 1,8 C 82 % 1006,4 hPa 0,0 mm 3,2 km/h (1 Bft) O-SO 112 0 min 0 UV-I 32 W/m 11,3 km/h (2 Bft)
17.02.2011 16:20 1,8 C 82 % 1006,5 hPa 0,0 mm 4,8 km/h (1 Bft) O 90 0 min 0 UV-I 28 W/m 11,3 km/h (2 Bft)
17.02.2011 16:30 1,8 C 82 % 1006,5 hPa 0,0 mm 4,8 km/h (1 Bft) O 90 0 min 0 UV-I 28 W/m 14,5 km/h (3 Bft)
17.02.2011 16:40 1,7 C 82 % 1006,5 hPa 0,0 mm 4,8 km/h (1 Bft) O-SO 112 0 min 0 UV-I 26 W/m 14,5 km/h (3 Bft)
17.02.2011 16:50 1,7 C 82 % 1006,6 hPa 0,0 mm 3,2 km/h (1 Bft) O 90 0 min 0 UV-I 23 W/m 11,3 km/h (2 Bft)
17.02.2011 17:00 1,6 C 82 % 1006,7 hPa 0,0 mm 3,2 km/h (1 Bft) O-SO 112 0 min 0 UV-I 16 W/m 9,7 km/h (2 Bft)
17.02.2011 17:10 1,6 C 82 % 1006,9 hPa 0,0 mm 4,8 km/h (1 Bft) O 90 0 min 0 UV-I 12 W/m 11,3 km/h (2 Bft)
17.02.2011 17:20 1,6 C 82 % 1006,9 hPa 0,0 mm 4,8 km/h (1 Bft) O 90 0 min 0 UV-I 9 W/m 16,1 km/h (3 Bft)
17.02.2011 17:30 1,6 C 82 % 1007,0 hPa 0,0 mm 4,8 km/h (1 Bft) O 90 0 min 0 UV-I 5 W/m 11,3 km/h (2 Bft)
17.02.2011 17:40 1,6 C 82 % 1007,2 hPa 0,0 mm 3,2 km/h (1 Bft) O-NO 67 0 min 0 UV-I 0 W/m 9,7 km/h (2 Bft)
17.02.2011 17:50 1,5 C 82 % 1007,4 hPa 0,0 mm 1,6 km/h (1 Bft) O 90 0 min 0 UV-I 0 W/m 8,0 km/h (2 Bft)
17.02.2011 18:00 1,4 C 82 % 1007,6 hPa 0,0 mm 1,6 km/h (1 Bft) O 90 0 min 0 UV-I 0 W/m 8,0 km/h (2 Bft)
17.02.2011 18:10 1,4 C 83 % 1007,8 hPa 0,0 mm 1,6 km/h (1 Bft) O-NO 67 0 min 0 UV-I 0 W/m 6,4 km/h (2 Bft)
17.02.2011 18:20 1,4 C 83 % 1007,9 hPa 0,0 mm 3,2 km/h (1 Bft) O-NO 67 0 min 0 UV-I 0 W/m 9,7 km/h (2 Bft)
17.02.2011 18:30 1,4 C 83 % 1008,0 hPa 0,0 mm 3,2 km/h (1 Bft) O 90 0 min 0 UV-I 0 W/m 8,0 km/h (2 Bft)
17.02.2011 18:40 1,4 C 83 % 1008,3 hPa 0,0 mm 3,2 km/h (1 Bft) O-NO 67 0 min 0 UV-I 0 W/m 9,7 km/h (2 Bft)
17.02.2011 18:50 1,4 C 83 % 1008,5 hPa 0,0 mm 3,2 km/h (1 Bft) O 90 0 min 0 UV-I 0 W/m 11,3 km/h (2 Bft)
17.02.2011 19:00 1,4 C 83 % 1008,6 hPa 0,0 mm 3,2 km/h (1 Bft) O 90 0 min 0 UV-I 0 W/m 11,3 km/h (2 Bft)
17.02.2011 19:10 1,4 C 83 % 1008,5 hPa 0,0 mm 1,6 km/h (1 Bft) O-NO 67 0 min 0 UV-I 0 W/m 8,0 km/h (2 Bft)
17.02.2011 19:20 1,4 C 83 % 1008,6 hPa 0,0 mm 1,6 km/h (1 Bft) O-NO 67 0 min 0 UV-I 0 W/m 8,0 km/h (2 Bft)
17.02.2011 19:30 1,4 C 82 % 1008,7 hPa 0,0 mm 3,2 km/h (1 Bft) O 90 0 min 0 UV-I 0 W/m 9,7 km/h (2 Bft)
17.02.2011 19:40 1,4 C 82 % 1008,8 hPa 0,0 mm 1,6 km/h (1 Bft) O-NO 67 0 min 0 UV-I 0 W/m 8,0 km/h (2 Bft)
17.02.2011 19:50 1,4 C 82 % 1008,9 hPa 0,0 mm 3,2 km/h (1 Bft) O-NO 67 0 min 0 UV-I 0 W/m 8,0 km/h (2 Bft)
17.02.2011 20:00 1,4 C 82 % 1009,0 hPa 0,0 mm 3,2 km/h (1 Bft) O-NO 67 0 min 0 UV-I 0 W/m 8,0 km/h (2 Bft)
17.02.2011 20:10 1,3 C 82 % 1009,1 hPa 0,0 mm 4,8 km/h (1 Bft) O 90 0 min 0 UV-I 0 W/m 9,7 km/h (2 Bft)
17.02.2011 20:20 1,3 C 82 % 1009,2 hPa 0,0 mm 3,2 km/h (1 Bft) O 90 0 min 0 UV-I 0 W/m 9,7 km/h (2 Bft)
17.02.2011 20:30 1,2 C 82 % 1009,3 hPa 0,0 mm 3,2 km/h (1 Bft) O-NO 67 0 min 0 UV-I 0 W/m 6,4 km/h (2 Bft)
17.02.2011 20:40 1,2 C 82 % 1009,4 hPa 0,0 mm 3,2 km/h (1 Bft) O 90 0 min 0 UV-I 0 W/m 9,7 km/h (2 Bft)
17.02.2011 20:50 1,2 C 82 % 1009,5 hPa 0,0 mm 3,2 km/h (1 Bft) O-NO 67 0 min 0 UV-I 0 W/m 9,7 km/h (2 Bft)
17.02.2011 21:00 1,1 C 82 % 1009,7 hPa 0,0 mm 4,8 km/h (1 Bft) O-NO 67 0 min 0 UV-I 0 W/m 14,5 km/h (3 Bft)
17.02.2011 21:10 1,1 C 82 % 1009,8 hPa 0,0 mm 3,2 km/h (1 Bft) NO 45 0 min 0 UV-I 0 W/m 8,0 km/h (2 Bft)
17.02.2011 21:20 1,0 C 82 % 1009,8 hPa 0,0 mm 3,2 km/h (1 Bft) O-NO 67 0 min 0 UV-I 0 W/m 9,7 km/h (2 Bft)
17.02.2011 21:30 0,9 C 82 % 1009,9 hPa 0,0 mm 3,2 km/h (1 Bft) O-NO 67 0 min 0 UV-I 0 W/m 8,0 km/h (2 Bft)
17.02.2011 21:40 0,9 C 82 % 1009,9 hPa 0,0 mm 3,2 km/h (1 Bft) O-NO 67 0 min 0 UV-I 0 W/m 9,7 km/h (2 Bft)
17.02.2011 21:50 0,9 C 82 % 1010,0 hPa 0,0 mm 1,6 km/h (1 Bft) NO 45 0 min 0 UV-I 0 W/m 8,0 km/h (2 Bft)
17.02.2011 22:00 0,9 C 82 % 1010,0 hPa 0,0 mm 1,6 km/h (1 Bft) O-NO 67 0 min 0 UV-I 0 W/m 6,4 km/h (2 Bft)
17.02.2011 22:10 0,8 C 82 % 1010,1 hPa 0,0 mm 1,6 km/h (1 Bft) NO 45 0 min 0 UV-I 0 W/m 4,8 km/h (1 Bft)
17.02.2011 22:20 0,8 C 82 % 1010,2 hPa 0,0 mm 1,6 km/h (1 Bft) O-NO 67 0 min 0 UV-I 0 W/m 6,4 km/h (2 Bft)
17.02.2011 22:30 0,8 C 82 % 1010,3 hPa 0,0 mm 1,6 km/h (1 Bft) NO 45 0 min 0 UV-I 0 W/m 6,4 km/h (2 Bft)
17.02.2011 22:40 0,8 C 82 % 1010,4 hPa 0,0 mm 1,5 km/h (1 Bft) O 84 0 min 0 UV-I 0 W/m 6,4 km/h (2 Bft)
17.02.2011 22:50 0,7 C 82 % 1010,4 hPa 0,0 mm 3,0 km/h (1 Bft) NO 55 0 min 0 UV-I 0 W/m 9,7 km/h (2 Bft)
17.02.2011 23:00 0,7 C 82 % 1010,6 hPa 0,0 mm 2,3 km/h (1 Bft) NO 56 0 min 0 UV-I 0 W/m 6,4 km/h (2 Bft)
17.02.2011 23:10 0,7 C 82 % 1010,4 hPa 0,0 mm 2,2 km/h (1 Bft) O 93 0 min 0 UV-I 0 W/m 9,7 km/h (2 Bft)
17.02.2011 23:20 0,7 C 82 % 1010,5 hPa 0,0 mm 3,1 km/h (1 Bft) O-NO 76 0 min 0 UV-I 0 W/m 8,0 km/h (2 Bft)
17.02.2011 23:30 0,7 C 82 % 1010,6 hPa 0,0 mm 3,2 km/h (1 Bft) O-NO 67 0 min 0 UV-I 0 W/m 8,0 km/h (2 Bft)
17.02.2011 23:40 0,6 C 82 % 1010,5 hPa 0,0 mm 3,2 km/h (1 Bft) NO 45 0 min 0 UV-I 0 W/m 11,3 km/h (2 Bft)
17.02.2011 23:50 0,6 C 82 % 1010,7 hPa 0,0 mm 3,2 km/h (1 Bft) O 90 0 min 0 UV-I 0 W/m 8,0 km/h (2 Bft)
_ Min-Zeit 05:40 14:30 01:10 - 00:00 - - - - - 00:00
Minimum _ -0,9 C 82 % 1000,6 hPa - 0,0 km/h (0 Bft) - - - - - 0,0 km/h (0 Bft)
_ Max-Zeit 15:00 08:10 23:50 00:00 12:20 - - 00:00 12:20 12:20 12:40
Maximum _ 1,9 C 92 % 1010,7 hPa 0,0 mm 6,4 km/h
O (2 Bft)
- - 0 min 1 UV-I 188 W/m 17,7 km/h
O (3 Bft)
Durchschnitt _ 0,9 C 87 % 1005,0 hPa #0,0 mm 2,4 km/h (1 Bft) O - #0 min. 1 UV-I 81 W/m 7,2 km/h (2 Bft)